createdAt,value
2018-10-21T00:01:56.462Z,84.23
2018-10-21T00:04:24.717Z,79.00
2018-10-21T00:06:52.737Z,76.27
2018-10-21T00:09:23.005Z,79.23
2018-10-21T00:11:51.101Z,74.70
2018-10-21T00:14:20.067Z,81.50
2018-10-21T00:16:48.377Z,74.23
2018-10-21T00:19:16.474Z,79.80
2018-10-21T00:21:44.594Z,71.43
2018-10-21T00:24:13.190Z,73.43
2018-10-21T00:26:43.201Z,74.93
2018-10-21T00:29:11.265Z,85.33
2018-10-21T00:31:39.241Z,74.57
2018-10-21T00:34:07.298Z,87.93
2018-10-21T00:36:35.347Z,85.40
2018-10-21T00:39:04.772Z,89.73
2018-10-21T00:41:32.820Z,91.07
2018-10-21T00:44:01.091Z,81.93
2018-10-21T00:46:29.445Z,94.10
2018-10-21T00:48:57.819Z,85.80
2018-10-21T00:51:26.162Z,93.63
2018-10-21T00:53:54.408Z,91.50
2018-10-21T00:56:22.439Z,94.60
2018-10-21T00:58:50.481Z,80.07
2018-10-21T01:01:18.588Z,90.80
2018-10-21T01:03:46.985Z,78.87
2018-10-21T01:06:14.983Z,96.30
2018-10-21T01:08:42.953Z,89.47
2018-10-21T01:11:11.025Z,88.30
2018-10-21T01:13:40.071Z,87.60
2018-10-21T01:16:08.125Z,89.57
2018-10-21T01:18:36.162Z,87.93
2018-10-21T01:21:04.364Z,79.43
2018-10-21T01:23:32.575Z,93.87
2018-10-21T01:26:00.623Z,88.10
2018-10-21T01:28:28.753Z,86.00
2018-10-21T01:30:56.867Z,101.23
2018-10-21T01:33:25.011Z,108.73
2018-10-21T01:35:53.116Z,90.50
2018-10-21T01:38:21.358Z,88.90
2018-10-21T01:40:50.640Z,88.90
2018-10-21T01:43:22.833Z,89.30
2018-10-21T01:45:51.096Z,91.03
2018-10-21T01:48:20.181Z,86.07
2018-10-21T01:50:48.429Z,90.67
2018-10-21T01:53:17.397Z,100.90
2018-10-21T01:55:45.368Z,91.77
2018-10-21T01:58:13.696Z,90.13
2018-10-21T02:00:42.152Z,79.77
2018-10-21T02:03:10.305Z,87.03
2018-10-21T02:05:38.656Z,78.90
2018-10-21T02:08:06.644Z,79.20
2018-10-21T02:10:34.608Z,79.27
2018-10-21T02:13:03.078Z,83.00
2018-10-21T02:15:31.266Z,71.10
2018-10-21T02:17:59.404Z,66.93
2018-10-21T02:20:28.041Z,80.07
2018-10-21T02:22:57.130Z,73.30
2018-10-21T02:25:25.353Z,78.70
2018-10-21T02:27:53.710Z,68.53
2018-10-21T02:30:23.271Z,81.30
2018-10-21T02:32:51.951Z,81.70
2018-10-21T02:35:20.474Z,68.20
2018-10-21T02:37:48.753Z,75.17
2018-10-21T02:41:22.714Z,75.57
2018-10-21T02:43:50.816Z,81.23
2018-10-21T02:46:19.161Z,83.40
2018-10-21T02:48:47.453Z,79.40
2018-10-21T02:51:15.660Z,80.30
2018-10-21T02:53:43.669Z,82.37
2018-10-21T02:56:12.277Z,80.30
2018-10-21T02:58:40.897Z,75.80
2018-10-21T03:01:08.849Z,70.20
2018-10-21T03:03:38.417Z,72.50
2018-10-21T03:06:06.643Z,74.70
2018-10-21T03:08:34.692Z,67.47
2018-10-21T03:11:02.808Z,76.77
2018-10-21T03:13:31.210Z,69.00
2018-10-21T03:15:59.746Z,72.70
2018-10-21T03:18:28.487Z,77.60
2018-10-21T03:20:56.477Z,80.43
2018-10-21T03:23:24.854Z,65.60
2018-10-21T03:25:52.905Z,80.10
2018-10-21T03:28:20.916Z,79.23
2018-10-21T03:30:48.967Z,73.27
2018-10-21T03:33:17.299Z,78.63
2018-10-21T03:35:45.204Z,73.43
2018-10-21T03:38:13.565Z,67.57
2018-10-21T03:40:41.705Z,64.53
2018-10-21T03:43:09.794Z,67.90
2018-10-21T03:45:37.769Z,67.10
2018-10-21T03:48:05.998Z,71.73
2018-10-21T03:50:34.012Z,72.10
2018-10-21T03:53:02.148Z,70.23
2018-10-21T03:55:30.374Z,69.03
2018-10-21T03:57:58.675Z,71.73
2018-10-21T04:00:26.801Z,64.20
2018-10-21T04:02:54.842Z,70.70
2018-10-21T04:05:22.896Z,78.33
2018-10-21T04:07:50.907Z,78.10
2018-10-21T04:10:18.936Z,70.47
2018-10-21T04:12:46.981Z,66.33
2018-10-21T04:15:15.017Z,67.83
2018-10-21T04:17:43.131Z,71.23
2018-10-21T04:20:11.238Z,69.37
2018-10-21T04:22:43.558Z,70.90
2018-10-21T04:25:13.541Z,66.93
2018-10-21T04:27:41.517Z,78.20
2018-10-21T04:30:09.572Z,77.67
2018-10-21T04:32:40.501Z,79.30
2018-10-21T04:35:08.575Z,75.17
2018-10-21T04:37:42.009Z,64.10
2018-10-21T04:40:22.480Z,75.97
2018-10-21T04:42:51.046Z,75.80
2018-10-21T04:45:21.246Z,74.60
2018-10-21T04:47:50.224Z,62.57
2018-10-21T04:50:18.384Z,66.73
2018-10-21T04:52:53.074Z,63.13
2018-10-21T04:55:21.278Z,70.13
2018-10-21T04:57:49.521Z,61.73
2018-10-21T05:00:18.745Z,58.80
2018-10-21T05:02:46.732Z,71.43
2018-10-21T05:05:15.407Z,54.57
2018-10-21T05:07:43.441Z,61.67
2018-10-21T05:10:16.965Z,67.87
2018-10-21T05:12:44.848Z,68.37
2018-10-21T05:15:12.898Z,65.03
2018-10-21T05:17:40.819Z,66.90
2018-10-21T05:20:08.916Z,63.37
2018-10-21T05:22:36.968Z,62.07
2018-10-21T05:25:05.470Z,64.57
2018-10-21T05:27:33.571Z,55.23
2018-10-21T05:30:01.649Z,61.23
2018-10-21T05:32:29.692Z,62.00
2018-10-21T05:34:57.909Z,63.77
2018-10-21T05:37:26.333Z,68.50
2018-10-21T05:39:55.068Z,64.80
2018-10-21T05:42:23.210Z,57.07
2018-10-21T05:44:51.192Z,58.47
2018-10-21T05:47:19.428Z,52.80
2018-10-21T05:49:47.625Z,55.73
2018-10-21T05:52:15.787Z,74.43
2018-10-21T05:54:44.185Z,64.67
2018-10-21T05:57:12.273Z,56.87
2018-10-21T05:59:40.322Z,66.17
2018-10-21T06:02:08.314Z,59.40
2018-10-21T06:04:36.341Z,57.83
2018-10-21T06:07:04.556Z,62.73
2018-10-21T06:09:32.714Z,64.37
2018-10-21T06:12:00.953Z,66.77
2018-10-21T06:14:29.025Z,67.60
2018-10-21T06:17:31.242Z,62.10
2018-10-21T06:20:08.225Z,66.83
2018-10-21T06:22:39.266Z,58.43
2018-10-21T06:25:07.683Z,60.50
2018-10-21T06:27:36.621Z,58.70
2018-10-21T06:30:05.403Z,47.67
2018-10-21T06:32:33.589Z,65.83
2018-10-21T06:35:01.693Z,55.80
2018-10-21T06:37:29.696Z,47.57
2018-10-21T06:39:57.938Z,48.70
2018-10-21T06:42:27.003Z,46.07
2018-10-21T06:44:55.299Z,49.33
2018-10-21T06:47:25.275Z,49.03
2018-10-21T06:49:53.737Z,47.80
2018-10-21T06:52:21.858Z,40.40
2018-10-21T06:54:50.422Z,47.63
2018-10-21T06:57:18.755Z,36.73
2018-10-21T06:59:46.859Z,44.43
2018-10-21T07:02:14.928Z,40.83
2018-10-21T07:04:42.958Z,37.47
2018-10-21T07:07:10.908Z,50.53
2018-10-21T07:09:39.521Z,41.07
2018-10-21T07:12:07.634Z,35.17
2018-10-21T07:14:35.589Z,37.43
2018-10-21T07:17:04.891Z,31.57
2018-10-21T07:19:33.214Z,40.17
2018-10-21T07:22:01.422Z,48.10
2018-10-21T07:24:30.301Z,42.50
2018-10-21T07:26:58.672Z,34.70
2018-10-21T07:29:26.886Z,35.03
2018-10-21T07:31:55.788Z,35.43
2018-10-21T07:34:24.258Z,34.87
2018-10-21T07:36:52.667Z,36.97
2018-10-21T07:39:20.842Z,48.10
2018-10-21T07:41:48.960Z,37.10
2018-10-21T07:44:17.049Z,41.20
2018-10-21T07:46:45.209Z,36.50
2018-10-21T07:49:13.391Z,35.10
2018-10-21T07:51:41.359Z,42.50
2018-10-21T07:54:09.330Z,40.83
2018-10-21T07:56:37.428Z,34.43
2018-10-21T07:59:06.026Z,46.57
2018-10-21T08:01:34.057Z,39.63
2018-10-21T08:04:02.732Z,36.83
2018-10-21T08:06:37.674Z,34.57
2018-10-21T08:09:11.416Z,39.27
2018-10-21T08:11:39.493Z,38.50
2018-10-21T08:14:07.721Z,37.23
2018-10-21T08:16:35.985Z,33.10
2018-10-21T08:19:04.181Z,32.23
2018-10-21T08:21:32.949Z,38.10
2018-10-21T08:24:07.392Z,41.70
2018-10-21T08:26:35.398Z,37.27
2018-10-21T08:29:03.937Z,31.43
2018-10-21T08:31:32.081Z,30.00
2018-10-21T08:34:00.364Z,34.23
2018-10-21T08:36:28.461Z,31.77
2018-10-21T08:38:56.693Z,37.03
2018-10-21T08:41:24.929Z,28.20
2018-10-21T08:43:53.338Z,34.63
2018-10-21T08:46:21.439Z,27.60
2018-10-21T08:48:49.740Z,28.20
2018-10-21T08:51:18.103Z,27.23
2018-10-21T08:53:46.490Z,30.83
2018-10-21T08:56:14.995Z,28.63
2018-10-21T08:58:43.099Z,29.27
2018-10-21T09:01:11.240Z,30.00
2018-10-21T09:03:39.210Z,32.50
2018-10-21T09:06:07.420Z,29.40
2018-10-21T09:08:35.525Z,21.03
2018-10-21T09:11:03.555Z,25.17
2018-10-21T09:13:33.491Z,31.63
2018-10-21T09:16:01.743Z,23.93
2018-10-21T09:18:30.169Z,21.13
2018-10-21T09:20:58.771Z,21.13
2018-10-21T09:23:27.046Z,20.50
2018-10-21T09:25:55.201Z,27.80
2018-10-21T09:28:24.554Z,20.63
2018-10-21T09:30:52.795Z,16.77
2018-10-21T09:33:22.271Z,16.13
2018-10-21T09:35:50.425Z,16.43
2018-10-21T09:38:19.061Z,13.87
2018-10-21T09:40:47.240Z,19.40
2018-10-21T09:43:15.929Z,21.60
2018-10-21T09:45:44.162Z,19.33
2018-10-21T09:48:12.312Z,19.30
2018-10-21T09:50:40.527Z,18.90
2018-10-21T09:53:08.789Z,22.17
2018-10-21T09:55:36.924Z,19.10
2018-10-21T09:58:05.094Z,23.30
2018-10-21T10:00:38.692Z,19.20
2018-10-21T10:03:07.854Z,22.67
2018-10-21T10:05:36.192Z,26.00
2018-10-21T10:08:04.438Z,13.23
2018-10-21T10:10:32.653Z,16.67
2018-10-21T10:13:00.964Z,15.90
2018-10-21T10:15:29.136Z,16.20
2018-10-21T10:17:57.617Z,11.13
2018-10-21T10:20:26.966Z,8.60
2018-10-21T10:22:55.623Z,9.03
2018-10-21T10:25:24.837Z,11.07
2018-10-21T10:27:54.005Z,11.60
2018-10-21T10:30:22.631Z,16.43
2018-10-21T10:32:51.263Z,7.73
2018-10-21T10:35:19.365Z,10.30
2018-10-21T10:37:47.576Z,11.33
2018-10-21T10:40:15.921Z,8.90
2018-10-21T10:42:44.120Z,8.57
2018-10-21T10:45:12.230Z,14.50
2018-10-21T10:47:40.455Z,8.90
2018-10-21T10:50:09.512Z,15.63
2018-10-21T10:52:37.745Z,9.53
2018-10-21T10:55:05.938Z,5.97
2018-10-21T10:57:34.006Z,6.80
2018-10-21T11:00:02.414Z,9.10
2018-10-21T11:02:30.698Z,7.43
2018-10-21T11:04:58.838Z,9.27
2018-10-21T11:07:27.020Z,8.90
2018-10-21T11:09:55.383Z,7.37
2018-10-21T11:12:23.626Z,9.67
2018-10-21T11:14:51.685Z,8.70
2018-10-21T11:17:20.618Z,6.40
2018-10-21T11:19:48.669Z,5.70
2018-10-21T11:22:16.857Z,3.90
2018-10-21T11:24:48.320Z,7.17
2018-10-21T11:27:17.169Z,6.90
2018-10-21T11:29:45.858Z,5.37
2018-10-21T11:32:14.158Z,6.20
2018-10-21T11:34:42.345Z,7.67
2018-10-21T11:37:10.755Z,7.37
2018-10-21T11:39:38.749Z,7.10
2018-10-21T11:42:07.640Z,7.90
2018-10-21T11:44:35.714Z,6.30
2018-10-21T11:47:04.012Z,8.50
2018-10-21T11:49:32.302Z,12.57
2018-10-21T11:52:01.040Z,6.23
2018-10-21T11:54:29.424Z,14.23
2018-10-21T11:56:57.550Z,9.47
2018-10-21T11:59:26.005Z,4.33
2018-10-21T12:01:54.521Z,6.90
2018-10-21T12:04:23.780Z,5.10
2018-10-21T12:06:51.845Z,3.00
2018-10-21T12:09:20.237Z,4.77
2018-10-21T12:11:48.592Z,5.60
2018-10-21T12:14:17.038Z,4.57
2018-10-21T12:16:45.212Z,5.73
2018-10-21T12:19:13.592Z,8.67
2018-10-21T12:21:41.385Z,6.37
2018-10-21T12:24:09.547Z,5.30
2018-10-21T12:26:39.425Z,5.33
2018-10-21T12:29:07.612Z,3.43
2018-10-21T12:31:36.181Z,6.60
2018-10-21T12:34:06.760Z,6.10
2018-10-21T12:36:36.890Z,5.50
2018-10-21T12:39:06.978Z,7.43
2018-10-21T12:41:35.226Z,6.80
2018-10-21T12:44:03.561Z,5.70
2018-10-21T12:46:31.886Z,7.47
2018-10-21T12:49:00.748Z,7.60
2018-10-21T12:51:29.232Z,5.37
2018-10-21T12:53:57.658Z,4.33
2018-10-21T12:56:26.129Z,8.10
2018-10-21T12:58:54.671Z,6.10
2018-10-21T13:01:23.497Z,8.60
2018-10-21T13:03:51.734Z,6.80
2018-10-21T13:06:19.898Z,13.07
2018-10-21T13:08:48.594Z,8.83
2018-10-21T13:11:16.634Z,6.97
2018-10-21T13:13:44.953Z,3.93
2018-10-21T13:16:13.413Z,8.93
2018-10-21T13:18:41.361Z,9.33
2018-10-21T13:21:11.156Z,6.00
2018-10-21T13:23:41.951Z,8.73
2018-10-21T13:26:18.428Z,7.00
2018-10-21T13:28:46.636Z,8.13
2018-10-21T13:31:15.915Z,5.57
2018-10-21T13:33:45.797Z,6.43
2018-10-21T13:36:15.229Z,7.33
2018-10-21T13:38:43.752Z,6.03
2018-10-21T13:41:12.280Z,12.50
2018-10-21T13:43:42.421Z,4.93
2018-10-21T13:46:11.212Z,4.93
2018-10-21T13:48:39.504Z,5.70
2018-10-21T13:51:08.785Z,14.03
2018-10-21T13:56:15.762Z,6.10
2018-10-21T13:58:45.890Z,4.20
2018-10-21T14:01:14.279Z,4.20
2018-10-21T14:03:43.021Z,8.00
2018-10-21T14:06:11.182Z,6.50
2018-10-21T14:08:39.469Z,6.17
2018-10-21T14:11:07.701Z,4.53
2018-10-21T14:13:54.354Z,7.03
2018-10-21T14:16:24.277Z,23.10
2018-10-21T14:18:53.009Z,23.50
2018-10-21T14:21:23.335Z,8.40
2018-10-21T14:23:51.514Z,7.03
2018-10-21T14:26:20.569Z,5.20
2018-10-21T14:28:48.798Z,9.37
2018-10-21T14:31:17.149Z,6.17
2018-10-21T14:33:45.713Z,5.03
2018-10-21T14:36:13.888Z,8.40
2018-10-21T14:38:41.866Z,6.13
2018-10-21T14:41:10.071Z,9.00
2018-10-21T14:43:38.357Z,6.10
2018-10-21T14:46:07.111Z,5.90
2018-10-21T14:48:35.596Z,5.70
2018-10-21T14:51:05.215Z,8.87
2018-10-21T14:53:34.225Z,8.20
2018-10-21T14:56:04.764Z,8.20
2018-10-21T14:58:35.514Z,17.50
2018-10-21T15:01:03.670Z,17.00
2018-10-21T15:03:35.229Z,7.37
2018-10-21T15:06:04.982Z,3.67
2018-10-21T15:08:33.354Z,7.93
2018-10-21T15:11:01.919Z,8.23
2018-10-21T15:16:23.830Z,4.90
2018-10-21T15:18:56.781Z,11.80
2018-10-21T15:21:25.045Z,5.80
2018-10-21T15:23:58.910Z,5.47
2018-10-21T15:26:35.704Z,10.90
2018-10-21T15:29:09.226Z,8.00
2018-10-21T15:31:37.310Z,6.23
2018-10-21T15:34:05.822Z,6.10
2018-10-21T15:36:34.122Z,7.27
2018-10-21T15:39:03.769Z,5.57
2018-10-21T15:41:33.607Z,9.37
2018-10-21T15:44:01.996Z,6.90
2018-10-21T15:49:14.549Z,5.33
2018-10-21T15:51:54.692Z,9.30
2018-10-21T15:54:32.111Z,10.53
2018-10-21T15:57:00.369Z,7.60
2018-10-21T15:59:30.107Z,8.23
2018-10-21T16:02:03.370Z,7.77
2018-10-21T16:04:32.429Z,8.50
2018-10-21T16:07:10.014Z,10.20
2018-10-21T16:09:38.389Z,10.10
2018-10-21T16:12:06.782Z,8.67
2018-10-21T16:14:35.879Z,8.17
2018-10-21T16:17:04.147Z,8.70
2018-10-21T16:19:33.832Z,9.80
2018-10-21T16:22:03.485Z,7.33
2018-10-21T16:24:33.227Z,11.47
2018-10-21T16:27:01.997Z,7.57
2018-10-21T16:29:31.143Z,8.27
2018-10-21T16:37:28.257Z,7.13
2018-10-21T16:39:58.565Z,11.80
2018-10-21T16:42:28.505Z,13.33
2018-10-21T16:44:58.715Z,11.83
2018-10-21T16:47:39.012Z,8.53
2018-10-21T16:50:11.227Z,9.80
2018-10-21T16:52:39.660Z,10.87
2018-10-21T16:55:08.444Z,7.20
2018-10-21T16:57:36.674Z,12.93
2018-10-21T17:00:05.694Z,8.97
2018-10-21T17:02:34.400Z,10.83
2018-10-21T17:05:03.464Z,9.70
2018-10-21T17:07:32.738Z,6.27
2018-10-21T17:10:01.729Z,14.00
2018-10-21T17:12:30.072Z,6.93
2018-10-21T17:14:59.060Z,11.67
2018-10-21T17:17:29.108Z,10.10
2018-10-21T17:19:57.765Z,17.37
2018-10-21T17:22:26.362Z,8.90
2018-10-21T17:24:55.096Z,9.47
2018-10-21T17:27:23.626Z,14.23
2018-10-21T17:29:52.330Z,11.37
2018-10-21T17:34:53.412Z,8.87
2018-10-21T17:37:21.650Z,6.87
2018-10-21T17:39:49.815Z,9.60
2018-10-21T17:42:18.123Z,12.20
2018-10-21T17:44:46.724Z,10.10
2018-10-21T17:47:14.829Z,12.97
2018-10-21T17:49:43.066Z,13.73
2018-10-21T17:52:11.385Z,11.87
2018-10-21T17:54:41.475Z,13.40
2018-10-21T17:57:09.576Z,10.13
2018-10-21T17:59:37.752Z,7.60
2018-10-21T18:02:07.358Z,12.97
2018-10-21T18:04:35.810Z,18.90
2018-10-21T18:07:06.362Z,7.20
2018-10-21T18:09:38.361Z,10.83
2018-10-21T18:14:52.193Z,10.43
2018-10-21T18:17:20.494Z,8.00
2018-10-21T18:19:56.117Z,8.70
2018-10-21T18:22:26.985Z,7.93
2018-10-21T18:25:07.528Z,8.00
2018-10-21T18:30:17.208Z,7.97
2018-10-21T18:32:50.412Z,15.97
2018-10-21T18:35:19.547Z,9.30
2018-10-21T18:37:54.323Z,7.33
2018-10-21T18:40:23.291Z,9.67
2018-10-21T18:42:55.907Z,9.77
2018-10-21T18:45:25.189Z,10.70
2018-10-21T18:48:07.164Z,9.93
2018-10-21T18:50:47.615Z,9.77
2018-10-21T18:53:16.443Z,12.33
2018-10-21T18:55:46.050Z,9.97
2018-10-21T18:58:22.479Z,7.00
2018-10-21T19:00:56.598Z,6.10
2018-10-21T19:03:27.603Z,11.43
2018-10-21T19:06:03.514Z,5.77
2018-10-21T19:08:32.343Z,7.67
2018-10-21T19:13:33.936Z,7.13
2018-10-21T19:16:06.285Z,8.50
2018-10-21T19:18:35.237Z,12.13
2018-10-21T19:26:31.632Z,21.53
2018-10-21T19:29:00.255Z,7.60
2018-10-21T19:31:28.523Z,8.90
2018-10-21T19:33:57.205Z,6.80
2018-10-21T19:36:26.103Z,5.90
2018-10-21T19:38:54.445Z,8.00
2018-10-21T19:41:23.369Z,6.57
2018-10-21T19:43:51.660Z,9.20
2018-10-21T19:46:20.966Z,13.30
2018-10-21T19:48:51.931Z,9.50
2018-10-21T19:51:20.527Z,7.27
2018-10-21T19:53:49.364Z,12.03
2018-10-21T19:56:17.622Z,11.50
2018-10-21T19:58:45.939Z,8.13
2018-10-21T20:01:13.986Z,13.53
2018-10-21T20:03:41.924Z,15.60
2018-10-21T20:06:10.379Z,6.83
2018-10-21T20:08:38.652Z,9.63
2018-10-21T20:11:06.828Z,10.40
2018-10-21T20:13:34.935Z,11.93
2018-10-21T20:16:03.273Z,9.90
2018-10-21T20:18:31.636Z,11.00
2018-10-21T20:21:00.239Z,16.10
2018-10-21T20:23:28.690Z,9.50
2018-10-21T20:25:57.508Z,8.90
2018-10-21T20:28:25.726Z,12.10
2018-10-21T20:30:54.399Z,9.77
2018-10-21T20:33:27.030Z,6.63
2018-10-21T20:35:55.700Z,15.67
2018-10-21T20:38:24.660Z,7.47
2018-10-21T20:40:53.269Z,6.70
2018-10-21T20:43:21.735Z,8.63
2018-10-21T20:45:51.017Z,11.10
2018-10-21T20:48:19.257Z,10.77
2018-10-21T20:50:47.608Z,15.87
2018-10-21T20:53:15.778Z,8.60
2018-10-21T20:55:44.245Z,8.67
2018-10-21T20:58:12.587Z,8.93
2018-10-21T21:00:40.621Z,8.80
2018-10-21T21:03:08.739Z,12.00
2018-10-21T21:05:37.074Z,10.20
2018-10-21T21:08:05.227Z,13.70
2018-10-21T21:10:35.815Z,12.20
2018-10-21T21:13:04.115Z,9.80
2018-10-21T21:15:37.125Z,12.20
2018-10-21T21:18:05.361Z,8.40
2018-10-21T21:20:33.711Z,8.00
2018-10-21T21:23:01.735Z,8.93
2018-10-21T21:25:29.971Z,9.93
2018-10-21T21:27:58.480Z,11.60
2018-10-21T21:30:26.799Z,9.80
2018-10-21T21:32:55.353Z,9.93
2018-10-21T21:35:23.527Z,11.10
2018-10-21T21:37:51.622Z,14.00
2018-10-21T21:40:20.131Z,10.53
2018-10-21T21:42:48.337Z,15.10
2018-10-21T21:45:16.682Z,17.80
2018-10-21T21:47:44.817Z,12.90
2018-10-21T21:50:12.865Z,11.37
2018-10-21T21:52:40.938Z,9.50
2018-10-21T21:55:08.930Z,11.13
2018-10-21T21:57:42.042Z,17.53
2018-10-21T22:00:11.501Z,10.20
2018-10-21T22:02:39.581Z,23.67
2018-10-21T22:05:08.238Z,17.93
2018-10-21T22:07:37.085Z,11.53
2018-10-21T22:10:05.540Z,15.83
2018-10-21T22:12:33.929Z,10.63
2018-10-21T22:15:02.048Z,12.77
2018-10-21T22:17:30.281Z,10.90
2018-10-21T22:19:58.435Z,12.70
2018-10-21T22:22:26.880Z,13.10
2018-10-21T22:27:29.778Z,10.27
2018-10-21T22:29:57.859Z,14.10
2018-10-21T22:32:26.482Z,10.10
2018-10-21T22:34:54.874Z,9.30
2018-10-21T22:37:22.994Z,10.27
2018-10-21T22:39:51.006Z,8.87
2018-10-21T22:42:19.369Z,9.50
2018-10-21T22:44:47.279Z,8.27
2018-10-21T22:47:15.418Z,14.00
2018-10-21T22:49:43.513Z,7.57
2018-10-21T22:52:11.693Z,8.00
2018-10-21T22:54:39.671Z,8.70
2018-10-21T22:57:13.005Z,11.70
2018-10-21T22:59:41.111Z,13.03
2018-10-21T23:02:09.134Z,11.27
2018-10-21T23:04:37.406Z,9.20
2018-10-21T23:07:05.442Z,11.33
2018-10-21T23:09:33.618Z,13.80
2018-10-21T23:12:02.309Z,12.57
2018-10-21T23:14:30.466Z,9.03
2018-10-21T23:16:58.830Z,10.20
2018-10-21T23:19:34.087Z,12.47
2018-10-21T23:22:02.606Z,9.17
2018-10-21T23:24:30.827Z,11.40
2018-10-21T23:26:59.060Z,13.47
2018-10-21T23:29:27.525Z,12.67
2018-10-21T23:31:55.820Z,9.23
2018-10-21T23:34:26.938Z,11.23
2018-10-21T23:36:55.764Z,11.60
2018-10-21T23:39:24.048Z,17.40
2018-10-21T23:41:52.200Z,11.83
2018-10-21T23:44:20.283Z,13.53
2018-10-21T23:46:48.904Z,11.87
2018-10-21T23:49:17.136Z,10.17
2018-10-21T23:51:45.549Z,13.73
2018-10-21T23:54:13.621Z,7.30
2018-10-21T23:56:41.670Z,14.30
2018-10-21T23:59:10.955Z,8.57
